sensor_id;sensor_type;location;lat;lon;timestamp;P1;durP1;ratioP1;P2;durP2;ratioP2
53835;SDS011;39737;43.334;21.936;2023-07-16T00:02:04;8.48;;;2.85;;
53835;SDS011;39737;43.334;21.936;2023-07-16T00:04:50;4.57;;;2.90;;
53835;SDS011;39737;43.334;21.936;2023-07-16T00:07:37;5.85;;;3.50;;
53835;SDS011;39737;43.334;21.936;2023-07-16T00:15:14;6.93;;;3.08;;
53835;SDS011;39737;43.334;21.936;2023-07-16T00:18:01;4.15;;;2.70;;
53835;SDS011;39737;43.334;21.936;2023-07-16T00:20:47;6.35;;;3.00;;
53835;SDS011;39737;43.334;21.936;2023-07-16T00:23:34;5.28;;;3.30;;
53835;SDS011;39737;43.334;21.936;2023-07-16T00:26:21;4.72;;;3.22;;
53835;SDS011;39737;43.334;21.936;2023-07-16T00:29:07;8.57;;;3.10;;
53835;SDS011;39737;43.334;21.936;2023-07-16T00:35:05;5.35;;;3.47;;
53835;SDS011;39737;43.334;21.936;2023-07-16T00:45:07;4.93;;;3.22;;
53835;SDS011;39737;43.334;21.936;2023-07-16T00:47:55;5.72;;;3.05;;
53835;SDS011;39737;43.334;21.936;2023-07-16T00:50:41;7.50;;;2.58;;
53835;SDS011;39737;43.334;21.936;2023-07-16T00:53:27;3.95;;;2.63;;
53835;SDS011;39737;43.334;21.936;2023-07-16T00:56:15;5.43;;;3.45;;
53835;SDS011;39737;43.334;21.936;2023-07-16T00:59:02;3.97;;;2.60;;
53835;SDS011;39737;43.334;21.936;2023-07-16T01:01:49;8.02;;;2.95;;
53835;SDS011;39737;43.334;21.936;2023-07-16T01:04:35;7.53;;;3.53;;
53835;SDS011;39737;43.334;21.936;2023-07-16T01:07:22;5.40;;;2.80;;
53835;SDS011;39737;43.334;21.936;2023-07-16T01:10:09;5.03;;;2.90;;
53835;SDS011;39737;43.334;21.936;2023-07-16T01:12:57;6.65;;;2.80;;
53835;SDS011;39737;43.334;21.936;2023-07-16T01:15:43;4.35;;;2.75;;
53835;SDS011;39737;43.334;21.936;2023-07-16T01:18:29;4.05;;;3.10;;
53835;SDS011;39737;43.334;21.936;2023-07-16T01:21:16;5.20;;;3.03;;
53835;SDS011;39737;43.334;21.936;2023-07-16T01:29:35;4.88;;;2.58;;
53835;SDS011;39737;43.334;21.936;2023-07-16T01:32:23;3.72;;;3.03;;
53835;SDS011;39737;43.334;21.936;2023-07-16T01:35:09;4.93;;;2.60;;
53835;SDS011;39737;43.334;21.936;2023-07-16T01:37:56;4.93;;;3.15;;
53835;SDS011;39737;43.334;21.936;2023-07-16T01:40:43;9.27;;;3.25;;
53835;SDS011;39737;43.334;21.936;2023-07-16T01:43:29;11.82;;;3.35;;
53835;SDS011;39737;43.334;21.936;2023-07-16T01:46:15;7.97;;;2.85;;
53835;SDS011;39737;43.334;21.936;2023-07-16T01:49:02;3.95;;;2.60;;
53835;SDS011;39737;43.334;21.936;2023-07-16T01:51:48;4.07;;;2.92;;
53835;SDS011;39737;43.334;21.936;2023-07-16T01:54:35;5.50;;;3.55;;
53835;SDS011;39737;43.334;21.936;2023-07-16T01:57:20;3.95;;;2.53;;
53835;SDS011;39737;43.334;21.936;2023-07-16T02:00:07;5.25;;;2.88;;
53835;SDS011;39737;43.334;21.936;2023-07-16T02:03:04;7.90;;;3.40;;
53835;SDS011;39737;43.334;21.936;2023-07-16T02:05:50;10.55;;;4.03;;
53835;SDS011;39737;43.334;21.936;2023-07-16T02:08:36;6.97;;;3.53;;
53835;SDS011;39737;43.334;21.936;2023-07-16T02:11:22;13.95;;;2.97;;
53835;SDS011;39737;43.334;21.936;2023-07-16T02:14:09;4.18;;;2.63;;
53835;SDS011;39737;43.334;21.936;2023-07-16T02:16:55;10.30;;;3.72;;
53835;SDS011;39737;43.334;21.936;2023-07-16T02:19:43;6.78;;;3.63;;
53835;SDS011;39737;43.334;21.936;2023-07-16T02:22:29;3.55;;;2.58;;
53835;SDS011;39737;43.334;21.936;2023-07-16T02:25:15;3.85;;;3.10;;
53835;SDS011;39737;43.334;21.936;2023-07-16T02:28:01;8.40;;;3.40;;
53835;SDS011;39737;43.334;21.936;2023-07-16T02:30:49;4.72;;;3.03;;
53835;SDS011;39737;43.334;21.936;2023-07-16T02:33:36;4.63;;;3.00;;
53835;SDS011;39737;43.334;21.936;2023-07-16T02:36:25;3.80;;;2.78;;
53835;SDS011;39737;43.334;21.936;2023-07-16T02:39:11;4.45;;;3.35;;
53835;SDS011;39737;43.334;21.936;2023-07-16T02:41:58;7.82;;;3.95;;
53835;SDS011;39737;43.334;21.936;2023-07-16T02:44:44;6.50;;;3.33;;
53835;SDS011;39737;43.334;21.936;2023-07-16T02:47:31;5.30;;;3.22;;
53835;SDS011;39737;43.334;21.936;2023-07-16T02:50:17;9.10;;;3.75;;
53835;SDS011;39737;43.334;21.936;2023-07-16T02:53:04;6.80;;;3.70;;
53835;SDS011;39737;43.334;21.936;2023-07-16T02:55:51;6.82;;;3.92;;
53835;SDS011;39737;43.334;21.936;2023-07-16T02:58:37;6.35;;;3.67;;
53835;SDS011;39737;43.334;21.936;2023-07-16T03:01:24;4.13;;;3.00;;
53835;SDS011;39737;43.334;21.936;2023-07-16T03:04:10;4.65;;;3.03;;
53835;SDS011;39737;43.334;21.936;2023-07-16T03:06:56;6.47;;;3.78;;
53835;SDS011;39737;43.334;21.936;2023-07-16T03:09:42;8.38;;;4.15;;
53835;SDS011;39737;43.334;21.936;2023-07-16T03:12:29;6.38;;;3.28;;
53835;SDS011;39737;43.334;21.936;2023-07-16T03:15:15;4.88;;;3.08;;
53835;SDS011;39737;43.334;21.936;2023-07-16T03:18:01;4.55;;;3.13;;
53835;SDS011;39737;43.334;21.936;2023-07-16T03:20:48;7.13;;;3.45;;
53835;SDS011;39737;43.334;21.936;2023-07-16T03:23:52;6.95;;;3.38;;
53835;SDS011;39737;43.334;21.936;2023-07-16T03:26:39;7.25;;;3.80;;
53835;SDS011;39737;43.334;21.936;2023-07-16T03:29:25;4.22;;;2.97;;
53835;SDS011;39737;43.334;21.936;2023-07-16T03:32:12;4.57;;;3.20;;
53835;SDS011;39737;43.334;21.936;2023-07-16T03:34:58;5.10;;;3.22;;
53835;SDS011;39737;43.334;21.936;2023-07-16T03:37:44;8.63;;;3.42;;
53835;SDS011;39737;43.334;21.936;2023-07-16T03:40:30;6.20;;;3.58;;
53835;SDS011;39737;43.334;21.936;2023-07-16T03:43:17;8.27;;;4.00;;
53835;SDS011;39737;43.334;21.936;2023-07-16T03:46:03;4.78;;;3.40;;
53835;SDS011;39737;43.334;21.936;2023-07-16T03:48:53;5.40;;;3.50;;
53835;SDS011;39737;43.334;21.936;2023-07-16T03:51:39;6.95;;;3.40;;
53835;SDS011;39737;43.334;21.936;2023-07-16T03:54:26;6.30;;;3.95;;
53835;SDS011;39737;43.334;21.936;2023-07-16T03:57:12;9.85;;;3.95;;
53835;SDS011;39737;43.334;21.936;2023-07-16T03:59:58;5.25;;;3.65;;
53835;SDS011;39737;43.334;21.936;2023-07-16T04:02:45;6.40;;;3.83;;
53835;SDS011;39737;43.334;21.936;2023-07-16T04:05:35;7.65;;;4.00;;
53835;SDS011;39737;43.334;21.936;2023-07-16T04:08:21;7.82;;;3.60;;
53835;SDS011;39737;43.334;21.936;2023-07-16T04:11:07;8.23;;;3.90;;
53835;SDS011;39737;43.334;21.936;2023-07-16T04:13:54;4.55;;;3.85;;
53835;SDS011;39737;43.334;21.936;2023-07-16T04:16:40;4.78;;;3.67;;
53835;SDS011;39737;43.334;21.936;2023-07-16T04:19:26;6.05;;;3.85;;
53835;SDS011;39737;43.334;21.936;2023-07-16T04:22:12;5.90;;;3.70;;
53835;SDS011;39737;43.334;21.936;2023-07-16T04:24:59;5.43;;;3.60;;
53835;SDS011;39737;43.334;21.936;2023-07-16T04:27:45;8.90;;;3.47;;
53835;SDS011;39737;43.334;21.936;2023-07-16T04:30:31;8.18;;;4.25;;
53835;SDS011;39737;43.334;21.936;2023-07-16T04:33:17;6.00;;;4.10;;
53835;SDS011;39737;43.334;21.936;2023-07-16T04:36:05;6.65;;;4.13;;
53835;SDS011;39737;43.334;21.936;2023-07-16T04:38:51;6.10;;;4.30;;
53835;SDS011;39737;43.334;21.936;2023-07-16T04:41:38;7.18;;;3.95;;
53835;SDS011;39737;43.334;21.936;2023-07-16T04:44:25;6.88;;;4.47;;
53835;SDS011;39737;43.334;21.936;2023-07-16T04:47:11;10.63;;;4.40;;
53835;SDS011;39737;43.334;21.936;2023-07-16T04:49:57;7.20;;;3.97;;
53835;SDS011;39737;43.334;21.936;2023-07-16T04:52:45;6.65;;;4.05;;
53835;SDS011;39737;43.334;21.936;2023-07-16T04:55:37;5.55;;;3.97;;
53835;SDS011;39737;43.334;21.936;2023-07-16T04:58:24;8.50;;;4.93;;
53835;SDS011;39737;43.334;21.936;2023-07-16T05:01:10;6.72;;;3.65;;
53835;SDS011;39737;43.334;21.936;2023-07-16T05:03:57;6.43;;;4.78;;
53835;SDS011;39737;43.334;21.936;2023-07-16T05:06:43;7.13;;;4.85;;
53835;SDS011;39737;43.334;21.936;2023-07-16T05:09:30;9.82;;;4.85;;
53835;SDS011;39737;43.334;21.936;2023-07-16T05:12:16;6.07;;;3.90;;
53835;SDS011;39737;43.334;21.936;2023-07-16T05:15:02;8.73;;;4.57;;
53835;SDS011;39737;43.334;21.936;2023-07-16T05:17:48;6.82;;;4.22;;
53835;SDS011;39737;43.334;21.936;2023-07-16T05:20:34;6.43;;;4.45;;
53835;SDS011;39737;43.334;21.936;2023-07-16T05:23:21;8.90;;;4.32;;
53835;SDS011;39737;43.334;21.936;2023-07-16T05:26:08;12.50;;;4.88;;
53835;SDS011;39737;43.334;21.936;2023-07-16T05:28:55;6.40;;;4.07;;
53835;SDS011;39737;43.334;21.936;2023-07-16T05:31:42;5.75;;;4.40;;
53835;SDS011;39737;43.334;21.936;2023-07-16T05:34:28;6.05;;;4.40;;
53835;SDS011;39737;43.334;21.936;2023-07-16T05:37:14;15.63;;;4.50;;
53835;SDS011;39737;43.334;21.936;2023-07-16T05:40:00;7.93;;;4.28;;
53835;SDS011;39737;43.334;21.936;2023-07-16T05:42:46;6.97;;;4.38;;
53835;SDS011;39737;43.334;21.936;2023-07-16T05:45:33;7.25;;;4.93;;
53835;SDS011;39737;43.334;21.936;2023-07-16T05:48:20;9.52;;;5.13;;
53835;SDS011;39737;43.334;21.936;2023-07-16T05:51:06;7.40;;;4.10;;
53835;SDS011;39737;43.334;21.936;2023-07-16T05:53:52;12.50;;;4.30;;
53835;SDS011;39737;43.334;21.936;2023-07-16T05:56:38;4.85;;;3.60;;
53835;SDS011;39737;43.334;21.936;2023-07-16T05:59:25;10.27;;;4.45;;
53835;SDS011;39737;43.334;21.936;2023-07-16T06:02:11;9.73;;;4.85;;
53835;SDS011;39737;43.334;21.936;2023-07-16T06:04:57;7.43;;;3.95;;
53835;SDS011;39737;43.334;21.936;2023-07-16T06:07:44;9.68;;;3.72;;
53835;SDS011;39737;43.334;21.936;2023-07-16T06:10:30;10.57;;;3.67;;
53835;SDS011;39737;43.334;21.936;2023-07-16T06:13:16;15.93;;;3.70;;
53835;SDS011;39737;43.334;21.936;2023-07-16T06:16:02;11.85;;;3.45;;
53835;SDS011;39737;43.334;21.936;2023-07-16T06:18:48;5.65;;;3.88;;
53835;SDS011;39737;43.334;21.936;2023-07-16T06:21:35;5.50;;;3.17;;
53835;SDS011;39737;43.334;21.936;2023-07-16T06:24:21;8.35;;;4.28;;
53835;SDS011;39737;43.334;21.936;2023-07-16T06:27:07;9.55;;;4.10;;
53835;SDS011;39737;43.334;21.936;2023-07-16T06:29:53;7.32;;;3.30;;
53835;SDS011;39737;43.334;21.936;2023-07-16T06:32:39;9.85;;;3.67;;
53835;SDS011;39737;43.334;21.936;2023-07-16T06:35:26;7.35;;;4.35;;
53835;SDS011;39737;43.334;21.936;2023-07-16T06:38:12;5.47;;;3.50;;
53835;SDS011;39737;43.334;21.936;2023-07-16T06:40:59;7.38;;;3.80;;
53835;SDS011;39737;43.334;21.936;2023-07-16T06:44:04;5.15;;;3.50;;
53835;SDS011;39737;43.334;21.936;2023-07-16T06:46:50;11.43;;;4.47;;
53835;SDS011;39737;43.334;21.936;2023-07-16T06:49:37;4.28;;;3.17;;
53835;SDS011;39737;43.334;21.936;2023-07-16T06:52:23;6.78;;;3.65;;
53835;SDS011;39737;43.334;21.936;2023-07-16T06:55:13;6.10;;;3.88;;
53835;SDS011;39737;43.334;21.936;2023-07-16T06:58:00;5.00;;;3.97;;
53835;SDS011;39737;43.334;21.936;2023-07-16T07:00:46;6.38;;;4.03;;
53835;SDS011;39737;43.334;21.936;2023-07-16T07:03:32;8.13;;;3.78;;
53835;SDS011;39737;43.334;21.936;2023-07-16T07:06:22;7.45;;;3.72;;
53835;SDS011;39737;43.334;21.936;2023-07-16T07:09:10;4.93;;;3.92;;
53835;SDS011;39737;43.334;21.936;2023-07-16T07:11:56;6.22;;;4.10;;
53835;SDS011;39737;43.334;21.936;2023-07-16T07:14:43;8.02;;;4.03;;
53835;SDS011;39737;43.334;21.936;2023-07-16T07:17:29;5.03;;;3.65;;
53835;SDS011;39737;43.334;21.936;2023-07-16T07:20:15;4.90;;;3.58;;
53835;SDS011;39737;43.334;21.936;2023-07-16T07:23:02;6.13;;;3.80;;
53835;SDS011;39737;43.334;21.936;2023-07-16T07:25:49;13.07;;;4.15;;
53835;SDS011;39737;43.334;21.936;2023-07-16T07:28:36;4.68;;;3.70;;
53835;SDS011;39737;43.334;21.936;2023-07-16T07:31:23;7.32;;;3.72;;
53835;SDS011;39737;43.334;21.936;2023-07-16T07:34:09;5.28;;;3.70;;
53835;SDS011;39737;43.334;21.936;2023-07-16T07:36:55;7.55;;;3.17;;
53835;SDS011;39737;43.334;21.936;2023-07-16T07:39:42;10.73;;;3.75;;
53835;SDS011;39737;43.334;21.936;2023-07-16T07:42:28;8.30;;;4.20;;
53835;SDS011;39737;43.334;21.936;2023-07-16T07:45:15;5.13;;;3.75;;
53835;SDS011;39737;43.334;21.936;2023-07-16T07:48:02;6.82;;;4.20;;
53835;SDS011;39737;43.334;21.936;2023-07-16T07:50:48;4.95;;;3.70;;
53835;SDS011;39737;43.334;21.936;2023-07-16T07:53:38;7.10;;;3.85;;
53835;SDS011;39737;43.334;21.936;2023-07-16T07:56:24;7.57;;;4.07;;
53835;SDS011;39737;43.334;21.936;2023-07-16T07:59:10;7.55;;;3.88;;
53835;SDS011;39737;43.334;21.936;2023-07-16T08:01:59;6.15;;;3.17;;
53835;SDS011;39737;43.334;21.936;2023-07-16T08:04:47;5.15;;;3.67;;
53835;SDS011;39737;43.334;21.936;2023-07-16T08:07:34;12.00;;;3.97;;
53835;SDS011;39737;43.334;21.936;2023-07-16T08:10:21;5.47;;;3.63;;
53835;SDS011;39737;43.334;21.936;2023-07-16T08:13:07;5.65;;;3.47;;
53835;SDS011;39737;43.334;21.936;2023-07-16T08:15:53;10.90;;;4.50;;
53835;SDS011;39737;43.334;21.936;2023-07-16T08:18:39;5.72;;;3.88;;
53835;SDS011;39737;43.334;21.936;2023-07-16T08:21:25;8.30;;;3.90;;
53835;SDS011;39737;43.334;21.936;2023-07-16T08:24:12;4.72;;;3.55;;
53835;SDS011;39737;43.334;21.936;2023-07-16T08:26:58;5.45;;;3.63;;
53835;SDS011;39737;43.334;21.936;2023-07-16T08:29:44;10.73;;;4.00;;
53835;SDS011;39737;43.334;21.936;2023-07-16T08:32:30;5.28;;;3.58;;
53835;SDS011;39737;43.334;21.936;2023-07-16T08:35:16;7.80;;;4.20;;
53835;SDS011;39737;43.334;21.936;2023-07-16T08:38:03;10.07;;;4.45;;
53835;SDS011;39737;43.334;21.936;2023-07-16T08:40:50;5.38;;;4.03;;
53835;SDS011;39737;43.334;21.936;2023-07-16T08:43:36;6.20;;;4.22;;
53835;SDS011;39737;43.334;21.936;2023-07-16T08:46:23;11.23;;;4.05;;
53835;SDS011;39737;43.334;21.936;2023-07-16T08:49:10;12.20;;;4.53;;
53835;SDS011;39737;43.334;21.936;2023-07-16T08:51:56;5.35;;;3.78;;
53835;SDS011;39737;43.334;21.936;2023-07-16T08:54:43;13.43;;;4.57;;
53835;SDS011;39737;43.334;21.936;2023-07-16T08:57:30;8.32;;;4.32;;
53835;SDS011;39737;43.334;21.936;2023-07-16T09:00:16;7.95;;;4.03;;
53835;SDS011;39737;43.334;21.936;2023-07-16T09:03:21;10.88;;;4.07;;
53835;SDS011;39737;43.334;21.936;2023-07-16T09:06:08;5.00;;;3.25;;
53835;SDS011;39737;43.334;21.936;2023-07-16T09:08:54;8.00;;;4.15;;
53835;SDS011;39737;43.334;21.936;2023-07-16T09:11:46;12.63;;;4.28;;
53835;SDS011;39737;43.334;21.936;2023-07-16T09:14:32;10.07;;;4.35;;
53835;SDS011;39737;43.334;21.936;2023-07-16T09:17:22;4.95;;;3.60;;
53835;SDS011;39737;43.334;21.936;2023-07-16T09:20:10;13.05;;;5.05;;
53835;SDS011;39737;43.334;21.936;2023-07-16T09:22:57;13.23;;;4.47;;
53835;SDS011;39737;43.334;21.936;2023-07-16T09:25:43;7.53;;;3.80;;
53835;SDS011;39737;43.334;21.936;2023-07-16T09:28:31;6.47;;;3.85;;
53835;SDS011;39737;43.334;21.936;2023-07-16T09:31:17;6.55;;;4.38;;
53835;SDS011;39737;43.334;21.936;2023-07-16T09:34:03;13.30;;;4.20;;
53835;SDS011;39737;43.334;21.936;2023-07-16T09:36:50;11.93;;;4.53;;
53835;SDS011;39737;43.334;21.936;2023-07-16T09:39:37;8.20;;;4.53;;
53835;SDS011;39737;43.334;21.936;2023-07-16T09:42:23;8.27;;;5.28;;
53835;SDS011;39737;43.334;21.936;2023-07-16T09:45:17;6.30;;;3.92;;
53835;SDS011;39737;43.334;21.936;2023-07-16T09:48:04;8.25;;;5.00;;
53835;SDS011;39737;43.334;21.936;2023-07-16T09:50:51;10.18;;;4.10;;
53835;SDS011;39737;43.334;21.936;2023-07-16T09:53:42;11.27;;;5.13;;
53835;SDS011;39737;43.334;21.936;2023-07-16T09:56:41;9.05;;;4.68;;
53835;SDS011;39737;43.334;21.936;2023-07-16T09:59:29;5.80;;;3.95;;
53835;SDS011;39737;43.334;21.936;2023-07-16T10:02:16;8.30;;;4.60;;
53835;SDS011;39737;43.334;21.936;2023-07-16T10:05:11;10.10;;;5.05;;
53835;SDS011;39737;43.334;21.936;2023-07-16T10:07:58;5.90;;;4.05;;
53835;SDS011;39737;43.334;21.936;2023-07-16T10:10:46;8.63;;;4.40;;
53835;SDS011;39737;43.334;21.936;2023-07-16T10:13:37;6.57;;;4.35;;
53835;SDS011;39737;43.334;21.936;2023-07-16T10:16:23;11.52;;;4.93;;
53835;SDS011;39737;43.334;21.936;2023-07-16T10:19:13;9.45;;;5.03;;
53835;SDS011;39737;43.334;21.936;2023-07-16T10:21:59;10.95;;;4.55;;
53835;SDS011;39737;43.334;21.936;2023-07-16T10:24:51;12.15;;;4.80;;
53835;SDS011;39737;43.334;21.936;2023-07-16T10:27:37;6.32;;;4.35;;
53835;SDS011;39737;43.334;21.936;2023-07-16T10:30:23;8.60;;;4.57;;
53835;SDS011;39737;43.334;21.936;2023-07-16T10:33:13;10.32;;;4.13;;
53835;SDS011;39737;43.334;21.936;2023-07-16T10:35:59;9.80;;;4.60;;
53835;SDS011;39737;43.334;21.936;2023-07-16T10:38:45;6.63;;;4.32;;
53835;SDS011;39737;43.334;21.936;2023-07-16T10:41:31;14.00;;;4.50;;
53835;SDS011;39737;43.334;21.936;2023-07-16T10:44:23;18.98;;;4.75;;
53835;SDS011;39737;43.334;21.936;2023-07-16T10:47:17;9.82;;;4.65;;
53835;SDS011;39737;43.334;21.936;2023-07-16T10:50:07;6.60;;;4.57;;
53835;SDS011;39737;43.334;21.936;2023-07-16T10:52:54;6.53;;;4.22;;
53835;SDS011;39737;43.334;21.936;2023-07-16T10:55:40;11.75;;;5.13;;
53835;SDS011;39737;43.334;21.936;2023-07-16T10:58:32;8.98;;;4.68;;
53835;SDS011;39737;43.334;21.936;2023-07-16T11:01:22;9.18;;;5.00;;
53835;SDS011;39737;43.334;21.936;2023-07-16T11:04:09;10.52;;;5.38;;
53835;SDS011;39737;43.334;21.936;2023-07-16T11:06:55;12.00;;;4.65;;
53835;SDS011;39737;43.334;21.936;2023-07-16T11:09:46;5.72;;;3.90;;
53835;SDS011;39737;43.334;21.936;2023-07-16T11:12:33;8.38;;;4.50;;
53835;SDS011;39737;43.334;21.936;2023-07-16T11:15:29;10.20;;;7.00;;
53835;SDS011;39737;43.334;21.936;2023-07-16T11:18:15;8.60;;;5.13;;
53835;SDS011;39737;43.334;21.936;2023-07-16T11:21:02;10.35;;;5.10;;
53835;SDS011;39737;43.334;21.936;2023-07-16T11:23:49;8.48;;;4.43;;
53835;SDS011;39737;43.334;21.936;2023-07-16T11:26:35;6.50;;;4.70;;
53835;SDS011;39737;43.334;21.936;2023-07-16T11:29:21;6.68;;;4.57;;
53835;SDS011;39737;43.334;21.936;2023-07-16T11:32:08;12.05;;;4.68;;
53835;SDS011;39737;43.334;21.936;2023-07-16T11:34:54;7.30;;;4.97;;
53835;SDS011;39737;43.334;21.936;2023-07-16T11:37:41;9.45;;;4.55;;
53835;SDS011;39737;43.334;21.936;2023-07-16T11:40:27;7.30;;;4.18;;
53835;SDS011;39737;43.334;21.936;2023-07-16T11:43:13;11.10;;;4.68;;
53835;SDS011;39737;43.334;21.936;2023-07-16T11:45:59;10.50;;;4.65;;
53835;SDS011;39737;43.334;21.936;2023-07-16T11:48:46;8.60;;;4.80;;
53835;SDS011;39737;43.334;21.936;2023-07-16T11:51:32;12.48;;;4.65;;
53835;SDS011;39737;43.334;21.936;2023-07-16T11:54:19;13.32;;;5.03;;
53835;SDS011;39737;43.334;21.936;2023-07-16T11:57:05;10.07;;;4.57;;
53835;SDS011;39737;43.334;21.936;2023-07-16T11:59:52;8.05;;;4.97;;
53835;SDS011;39737;43.334;21.936;2023-07-16T12:02:38;8.40;;;5.07;;
53835;SDS011;39737;43.334;21.936;2023-07-16T12:05:24;14.48;;;5.13;;
53835;SDS011;39737;43.334;21.936;2023-07-16T12:08:32;9.20;;;4.30;;
53835;SDS011;39737;43.334;21.936;2023-07-16T12:11:18;10.05;;;5.28;;
53835;SDS011;39737;43.334;21.936;2023-07-16T12:14:05;10.38;;;4.85;;
53835;SDS011;39737;43.334;21.936;2023-07-16T12:16:51;9.73;;;4.28;;
53835;SDS011;39737;43.334;21.936;2023-07-16T12:19:38;7.47;;;4.65;;
53835;SDS011;39737;43.334;21.936;2023-07-16T12:22:24;7.78;;;3.63;;
53835;SDS011;39737;43.334;21.936;2023-07-16T12:25:10;5.75;;;4.20;;
53835;SDS011;39737;43.334;21.936;2023-07-16T12:27:56;7.35;;;4.88;;
53835;SDS011;39737;43.334;21.936;2023-07-16T12:30:43;14.30;;;4.80;;
53835;SDS011;39737;43.334;21.936;2023-07-16T12:33:29;8.13;;;4.38;;
53835;SDS011;39737;43.334;21.936;2023-07-16T12:36:16;5.20;;;3.70;;
53835;SDS011;39737;43.334;21.936;2023-07-16T12:39:02;12.35;;;4.75;;
53835;SDS011;39737;43.334;21.936;2023-07-16T12:41:49;7.07;;;4.53;;
53835;SDS011;39737;43.334;21.936;2023-07-16T12:44:35;6.18;;;3.90;;
53835;SDS011;39737;43.334;21.936;2023-07-16T12:47:21;8.15;;;4.03;;
53835;SDS011;39737;43.334;21.936;2023-07-16T12:50:26;6.80;;;4.15;;
53835;SDS011;39737;43.334;21.936;2023-07-16T12:53:15;6.32;;;3.78;;
53835;SDS011;39737;43.334;21.936;2023-07-16T12:56:01;8.55;;;4.85;;
53835;SDS011;39737;43.334;21.936;2023-07-16T12:58:49;6.90;;;4.43;;
53835;SDS011;39737;43.334;21.936;2023-07-16T13:01:35;11.93;;;4.95;;
53835;SDS011;39737;43.334;21.936;2023-07-16T13:04:22;10.07;;;4.18;;
53835;SDS011;39737;43.334;21.936;2023-07-16T13:07:08;10.20;;;4.35;;
53835;SDS011;39737;43.334;21.936;2023-07-16T13:09:54;6.55;;;3.83;;
53835;SDS011;39737;43.334;21.936;2023-07-16T13:13:00;10.70;;;4.43;;
53835;SDS011;39737;43.334;21.936;2023-07-16T13:15:49;7.53;;;4.13;;
53835;SDS011;39737;43.334;21.936;2023-07-16T13:18:35;9.18;;;5.13;;
53835;SDS011;39737;43.334;21.936;2023-07-16T13:21:21;9.75;;;4.60;;
53835;SDS011;39737;43.334;21.936;2023-07-16T13:27:43;10.25;;;5.57;;
53835;SDS011;39737;43.334;21.936;2023-07-16T13:30:32;7.65;;;4.20;;
53835;SDS011;39737;43.334;21.936;2023-07-16T13:33:37;6.55;;;4.18;;
53835;SDS011;39737;43.334;21.936;2023-07-16T13:36:31;10.95;;;3.97;;
53835;SDS011;39737;43.334;21.936;2023-07-16T13:39:20;6.82;;;3.47;;
53835;SDS011;39737;43.334;21.936;2023-07-16T13:42:07;6.75;;;4.20;;
53835;SDS011;39737;43.334;21.936;2023-07-16T13:45:08;6.00;;;3.70;;
53835;SDS011;39737;43.334;21.936;2023-07-16T13:47:54;6.40;;;4.13;;
53835;SDS011;39737;43.334;21.936;2023-07-16T13:50:41;8.32;;;3.80;;
53835;SDS011;39737;43.334;21.936;2023-07-16T13:53:27;5.60;;;3.67;;
53835;SDS011;39737;43.334;21.936;2023-07-16T13:56:14;7.10;;;3.70;;
53835;SDS011;39737;43.334;21.936;2023-07-16T13:59:00;4.82;;;3.70;;
53835;SDS011;39737;43.334;21.936;2023-07-16T14:01:47;6.82;;;4.07;;
53835;SDS011;39737;43.334;21.936;2023-07-16T14:04:33;9.95;;;4.50;;
53835;SDS011;39737;43.334;21.936;2023-07-16T14:07:19;6.20;;;3.50;;
53835;SDS011;39737;43.334;21.936;2023-07-16T14:10:06;5.18;;;3.58;;
53835;SDS011;39737;43.334;21.936;2023-07-16T14:12:52;9.02;;;4.25;;
53835;SDS011;39737;43.334;21.936;2023-07-16T14:15:39;5.10;;;3.60;;
53835;SDS011;39737;43.334;21.936;2023-07-16T14:18:25;10.95;;;4.13;;
53835;SDS011;39737;43.334;21.936;2023-07-16T14:21:11;6.53;;;3.40;;
53835;SDS011;39737;43.334;21.936;2023-07-16T14:24:01;7.25;;;3.40;;
53835;SDS011;39737;43.334;21.936;2023-07-16T14:26:48;7.70;;;3.88;;
53835;SDS011;39737;43.334;21.936;2023-07-16T14:29:35;8.25;;;4.05;;
53835;SDS011;39737;43.334;21.936;2023-07-16T14:32:32;6.65;;;3.63;;
53835;SDS011;39737;43.334;21.936;2023-07-16T14:35:20;7.68;;;3.53;;
53835;SDS011;39737;43.334;21.936;2023-07-16T14:38:20;5.75;;;3.90;;
53835;SDS011;39737;43.334;21.936;2023-07-16T14:41:06;6.63;;;3.70;;
53835;SDS011;39737;43.334;21.936;2023-07-16T14:43:53;6.00;;;3.30;;
53835;SDS011;39737;43.334;21.936;2023-07-16T14:46:42;7.40;;;3.28;;
53835;SDS011;39737;43.334;21.936;2023-07-16T14:49:31;4.45;;;2.75;;
53835;SDS011;39737;43.334;21.936;2023-07-16T14:52:17;5.07;;;2.67;;
53835;SDS011;39737;43.334;21.936;2023-07-16T14:55:03;7.45;;;3.38;;
53835;SDS011;39737;43.334;21.936;2023-07-16T14:57:50;8.40;;;4.03;;
53835;SDS011;39737;43.334;21.936;2023-07-16T15:00:39;7.90;;;3.50;;
53835;SDS011;39737;43.334;21.936;2023-07-16T15:03:27;6.05;;;3.13;;
53835;SDS011;39737;43.334;21.936;2023-07-16T15:06:22;6.78;;;3.92;;
53835;SDS011;39737;43.334;21.936;2023-07-16T15:10:07;3.88;;;3.13;;
53835;SDS011;39737;43.334;21.936;2023-07-16T15:12:57;8.25;;;3.80;;
53835;SDS011;39737;43.334;21.936;2023-07-16T15:15:47;5.03;;;3.03;;
53835;SDS011;39737;43.334;21.936;2023-07-16T15:18:34;4.00;;;2.88;;
53835;SDS011;39737;43.334;21.936;2023-07-16T15:21:21;5.45;;;3.65;;
53835;SDS011;39737;43.334;21.936;2023-07-16T15:24:08;5.53;;;3.15;;
53835;SDS011;39737;43.334;21.936;2023-07-16T15:26:54;5.13;;;3.55;;
53835;SDS011;39737;43.334;21.936;2023-07-16T15:29:41;8.43;;;2.97;;
53835;SDS011;39737;43.334;21.936;2023-07-16T15:32:28;4.28;;;2.75;;
53835;SDS011;39737;43.334;21.936;2023-07-16T15:35:14;5.97;;;3.40;;
53835;SDS011;39737;43.334;21.936;2023-07-16T15:38:01;6.30;;;3.75;;
53835;SDS011;39737;43.334;21.936;2023-07-16T15:40:48;7.70;;;3.50;;
53835;SDS011;39737;43.334;21.936;2023-07-16T15:43:35;9.93;;;3.88;;
53835;SDS011;39737;43.334;21.936;2023-07-16T15:46:22;7.60;;;3.78;;
53835;SDS011;39737;43.334;21.936;2023-07-16T15:49:09;5.68;;;3.70;;
53835;SDS011;39737;43.334;21.936;2023-07-16T15:51:56;6.72;;;3.70;;
53835;SDS011;39737;43.334;21.936;2023-07-16T15:54:43;11.63;;;3.65;;
53835;SDS011;39737;43.334;21.936;2023-07-16T15:57:29;10.70;;;3.20;;
53835;SDS011;39737;43.334;21.936;2023-07-16T16:00:16;10.23;;;3.50;;
53835;SDS011;39737;43.334;21.936;2023-07-16T16:03:03;13.77;;;4.13;;
53835;SDS011;39737;43.334;21.936;2023-07-16T16:05:49;8.25;;;3.58;;
53835;SDS011;39737;43.334;21.936;2023-07-16T16:08:37;9.23;;;5.03;;
53835;SDS011;39737;43.334;21.936;2023-07-16T16:11:24;9.13;;;3.67;;
53835;SDS011;39737;43.334;21.936;2023-07-16T16:14:11;7.65;;;3.85;;
53835;SDS011;39737;43.334;21.936;2023-07-16T16:16:57;5.78;;;4.03;;
53835;SDS011;39737;43.334;21.936;2023-07-16T16:19:53;12.20;;;2.92;;
53835;SDS011;39737;43.334;21.936;2023-07-16T16:22:39;8.32;;;3.97;;
53835;SDS011;39737;43.334;21.936;2023-07-16T16:25:30;10.10;;;3.20;;
53835;SDS011;39737;43.334;21.936;2023-07-16T16:28:23;8.85;;;3.33;;
53835;SDS011;39737;43.334;21.936;2023-07-16T16:31:09;5.38;;;3.95;;
53835;SDS011;39737;43.334;21.936;2023-07-16T16:33:55;6.30;;;4.05;;
53835;SDS011;39737;43.334;21.936;2023-07-16T16:36:55;10.60;;;3.72;;
53835;SDS011;39737;43.334;21.936;2023-07-16T16:39:41;7.20;;;3.08;;
53835;SDS011;39737;43.334;21.936;2023-07-16T16:42:28;6.32;;;2.83;;
53835;SDS011;39737;43.334;21.936;2023-07-16T16:45:15;5.90;;;2.90;;
53835;SDS011;39737;43.334;21.936;2023-07-16T16:48:02;5.43;;;2.67;;
53835;SDS011;39737;43.334;21.936;2023-07-16T16:50:53;9.63;;;4.18;;
53835;SDS011;39737;43.334;21.936;2023-07-16T16:53:39;10.25;;;3.33;;
53835;SDS011;39737;43.334;21.936;2023-07-16T16:56:29;4.78;;;3.53;;